Impacts METAR Board
IDs:

KERV - Kerrville Muni, TX, US

Updated at: 2300 UTC 18 Oct 2019
Potential Impact None Slight Moderate High
Time 18/11Z 18/12Z 18/13Z 18/14Z 18/15Z 18/16Z 18/17Z 18/18Z 18/19Z 18/20Z 18/21Z 18/22Z 18/23Z
Temp47 46 45 51 61 69 72 77 81 82 82 82 80
Dewpt42 40 41 45 46 46 48 51 51 53 53 53 54
Altim29.89 29.90 29.90 29.89 29.89 29.88 29.87 29.85 29.81 29.78 29.76 29.75 29.74
VIS10 10 10 10 10 10 10 10 10 10 10 10 10
CIG-- -- -- -- -- -- -- -- -- -- -- -- --
CoverCLRCLRCLRCLRCLRCLRCLRCLRCLRCLRCLRCLRCLR
FltCatVFRVFRVFRVFRVFRVFRVFRVFRVFRVFRVFRVFRVFR
WX--------------------------
WDir00000210160160170180180180150
WSpd0 0 0 0 0 3 8 7 11 11 9 11 8
WGst-- -- -- -- -- -- -- -- 15 15 -- 16 --
Raw hourly METARs
KERV 181055Z AUTO 00000KT 10SM CLR 08/05 A2989 RMK AO2 T00830053
KERV 181155Z AUTO 00000KT 10SM CLR 08/05 A2990 RMK AO2 T00750047 10106 20074
KERV 181255Z AUTO 00000KT 10SM CLR 07/05 A2990 RMK AO2 T00740048
KERV 181355Z AUTO 00000KT 10SM CLR 11/07 A2989 RMK AO2 T01060070
KERV 181455Z AUTO 00000KT 10SM CLR 16/08 A2989 RMK AO2 T01620075
KERV 181555Z AUTO 21003KT 10SM CLR 21/08 A2988 RMK AO2 T02050076
KERV 181655Z AUTO 16008KT 10SM CLR 22/09 A2987 RMK AO2 T02200090
KERV 181755Z AUTO 16007KT 10SM CLR 25/10 A2985 RMK AO2 T02480103 10248 20071
KERV 181855Z AUTO 17011G15KT 10SM CLR 27/11 A2981 RMK AO2 T02720108
KERV 181955Z AUTO 18011G15KT 10SM CLR 28/11 A2978 RMK AO2 T02750114
KERV 182055Z AUTO 18009KT 10SM CLR 28/12 A2976 RMK AO2 T02750117
KERV 182155Z AUTO 18011G16KT 10SM CLR 28/12 A2975 RMK AO2 T02750119
KERV 182255Z AUTO 15008KT 10SM CLR 27/12 A2974 RMK AO2 T02670123